Time;durP1;ratioP1;P1;durP2;ratioP2;P2;SDS_P1;SDS_P2;PMS_P1;PMS_P2;Temp;Humidity;BMP_temperature;BMP_pressure;BME280_temperature;BME280_humidity;BME280_pressure;Samples;Min_cycle;Max_cycle;Signal;HPM_P1;HPM_P2
2023/05/17 00:00:54;;;;;;;20.90;18.83;;;6.80;99.90;;;;;;5021590;28;20506;-74
2023/05/17 00:03:21;;;;;;;20.30;18.60;;;6.70;99.90;;;;;;5027864;28;20114;-77
2023/05/17 00:05:48;;;;;;;22.42;19.33;;;6.70;99.90;;;;;;5025024;28;20053;-75
2023/05/17 00:08:15;;;;;;;21.70;19.63;;;6.60;99.90;;;;;;5035820;28;20064;-75
2023/05/17 00:10:42;;;;;;;21.45;19.45;;;6.50;99.90;;;;;;5007197;28;20044;-75
2023/05/17 00:13:09;;;;;;;21.77;19.25;;;6.50;99.90;;;;;;5002338;28;20127;-76
2023/05/17 00:15:36;;;;;;;20.33;18.60;;;6.50;99.90;;;;;;5024129;28;20583;-75
2023/05/17 00:18:03;;;;;;;20.95;18.98;;;6.40;99.90;;;;;;5004884;28;20118;-75
2023/05/17 00:20:29;;;;;;;21.08;18.60;;;6.50;99.90;;;;;;5018521;28;20562;-75
2023/05/17 00:22:56;;;;;;;19.83;18.17;;;6.40;99.90;;;;;;5020212;28;20096;-75
2023/05/17 00:25:23;;;;;;;19.65;17.88;;;6.40;99.90;;;;;;5013803;28;20127;-75
2023/05/17 00:27:50;;;;;;;19.35;17.70;;;6.40;99.90;;;;;;5020214;28;20042;-75
2023/05/17 00:30:18;;;;;;;20.33;18.17;;;6.30;99.90;;;;;;5022970;28;20049;-76
2023/05/17 00:32:45;;;;;;;21.10;19.15;;;6.20;99.90;;;;;;5018393;28;20069;-76
2023/05/17 00:35:12;;;;;;;19.73;17.95;;;6.20;99.90;;;;;;5001472;28;20073;-75
2023/05/17 00:37:40;;;;;;;20.30;18.60;;;6.20;99.90;;;;;;5027723;28;20102;-75
2023/05/17 00:40:08;;;;;;;21.75;19.13;;;6.20;99.90;;;;;;5033800;28;20053;-76
2023/05/17 00:42:34;;;;;;;21.50;19.33;;;6.20;99.90;;;;;;5018598;28;20613;-74
2023/05/17 00:45:01;;;;;;;24.08;19.20;;;6.10;99.90;;;;;;5027506;28;20041;-75
2023/05/17 00:47:28;;;;;;;20.50;18.55;;;6.10;99.90;;;;;;5016273;28;20049;-75
2023/05/17 00:49:55;;;;;;;21.02;18.95;;;6.10;99.90;;;;;;5015885;28;20049;-75
2023/05/17 00:52:22;;;;;;;23.20;19.67;;;6.10;99.90;;;;;;5021982;28;20516;-74
2023/05/17 00:54:50;;;;;;;21.15;19.13;;;6.10;99.90;;;;;;5020251;28;20037;-74
2023/05/17 00:57:17;;;;;;;23.85;19.25;;;6.00;99.90;;;;;;5028612;28;20090;-74
2023/05/17 00:59:44;;;;;;;21.23;19.08;;;6.00;99.90;;;;;;5019794;28;20120;-75
2023/05/17 01:02:11;;;;;;;21.55;18.33;;;6.00;99.90;;;;;;5020325;28;20038;-74
2023/05/17 01:04:40;;;;;;;19.58;17.75;;;6.10;99.90;;;;;;5001305;28;20064;-75
2023/05/17 01:07:08;;;;;;;20.15;18.05;;;6.10;99.90;;;;;;5020343;28;20049;-74
2023/05/17 01:09:35;;;;;;;20.08;18.20;;;6.00;99.90;;;;;;5025774;28;20134;-74
2023/05/17 01:12:23;;;;;;;21.17;18.90;;;6.00;99.90;;;;;;5017860;28;20074;-75
2023/05/17 01:15:05;;;;;;;20.90;18.75;;;6.00;99.90;;;;;;5026092;28;20119;-75
2023/05/17 01:17:32;;;;;;;20.95;18.92;;;6.00;99.90;;;;;;5005031;28;20754;-75
2023/05/17 01:20:05;;;;;;;22.33;20.08;;;6.00;99.90;;;;;;5003453;28;20102;-76
2023/05/17 01:23:19;;;;;;;21.20;19.10;;;6.00;99.90;;;;;;5024101;28;20607;-75
2023/05/17 01:26:14;;;;;;;24.13;20.10;;;6.00;99.90;;;;;;4998700;28;20100;-76
2023/05/17 01:28:45;;;;;;;22.38;19.10;;;6.10;99.90;;;;;;5012006;28;20095;-74
2023/05/17 01:31:12;;;;;;;25.80;19.58;;;6.20;99.90;;;;;;5007888;28;20053;-74
2023/05/17 01:33:39;;;;;;;20.77;18.67;;;6.40;99.90;;;;;;5025127;28;20115;-75
2023/05/17 01:36:07;;;;;;;21.33;19.23;;;6.40;99.90;;;;;;5002200;28;20091;-75
2023/05/17 01:38:34;;;;;;;20.35;18.08;;;6.40;99.90;;;;;;5026330;28;20045;-75
2023/05/17 01:41:12;;;;;;;22.17;17.25;;;6.60;99.90;;;;;;5012586;28;20107;-75
2023/05/17 01:43:58;;;;;;;18.60;16.80;;;6.70;99.90;;;;;;5021164;28;20045;-73
2023/05/17 01:46:31;;;;;;;20.80;18.35;;;6.70;99.90;;;;;;5029403;28;20052;-74
2023/05/17 01:49:09;;;;;;;21.35;18.55;;;6.70;99.90;;;;;;5029395;28;20164;-74
2023/05/17 01:51:46;;;;;;;21.52;17.80;;;6.90;99.90;;;;;;5015572;28;20111;-74
2023/05/17 01:54:19;;;;;;;22.55;17.25;;;7.00;99.90;;;;;;5007850;28;20041;-74
2023/05/17 01:56:50;;;;;;;19.63;17.52;;;7.00;99.90;;;;;;5009715;28;20787;-75
2023/05/17 01:59:21;;;;;;;18.52;16.73;;;7.10;99.90;;;;;;5023623;28;20059;-75
2023/05/17 02:01:50;;;;;;;19.23;17.15;;;7.10;99.90;;;;;;5003297;28;20560;-74
2023/05/17 02:04:17;;;;;;;22.92;17.15;;;7.20;99.90;;;;;;5020509;28;20041;-75
2023/05/17 02:06:44;;;;;;;18.73;16.80;;;7.20;99.90;;;;;;5028674;28;20033;-74
2023/05/17 02:09:11;;;;;;;22.02;17.40;;;7.20;99.90;;;;;;5023911;28;20041;-75
2023/05/17 02:11:38;;;;;;;21.58;17.70;;;7.20;99.90;;;;;;5027887;28;20041;-74
2023/05/17 02:14:05;;;;;;;23.17;17.67;;;7.20;99.90;;;;;;5009383;28;20108;-75
2023/05/17 02:16:32;;;;;;;20.13;17.73;;;7.20;99.90;;;;;;5019069;28;20537;-75
2023/05/17 02:18:58;;;;;;;23.38;18.23;;;7.10;99.90;;;;;;5023691;28;20668;-75
2023/05/17 02:21:25;;;;;;;22.52;18.33;;;7.10;99.90;;;;;;5021346;28;20048;-75
2023/05/17 02:23:52;;;;;;;24.10;17.98;;;7.20;99.90;;;;;;5016711;28;20922;-76
2023/05/17 02:26:19;;;;;;;22.65;18.15;;;7.10;99.90;;;;;;5012203;28;20078;-75
2023/05/17 02:28:46;;;;;;;25.58;19.33;;;7.20;99.90;;;;;;5027360;28;20060;-74
2023/05/17 02:31:13;;;;;;;29.60;19.55;;;7.20;99.90;;;;;;5032006;28;20189;-74
2023/05/17 02:33:42;;;;;;;22.02;17.98;;;7.10;99.90;;;;;;5006187;28;20379;-76
2023/05/17 02:36:09;;;;;;;30.13;19.70;;;7.20;99.90;;;;;;5007392;28;20116;-75
2023/05/17 02:38:38;;;;;;;26.80;20.05;;;7.20;99.90;;;;;;5028671;28;20099;-76
2023/05/17 02:41:04;;;;;;;29.30;21.55;;;7.20;99.90;;;;;;5022068;28;20530;-75
2023/05/17 02:43:40;;;;;;;20.80;18.60;;;7.30;99.90;;;;;;5008318;28;20081;-74
2023/05/17 02:46:08;;;;;;;26.95;18.90;;;7.30;99.90;;;;;;5022066;28;20686;-76
2023/05/17 02:48:35;;;;;;;23.77;19.80;;;7.30;99.90;;;;;;5019545;28;20050;-76
2023/05/17 02:51:02;;;;;;;23.92;19.58;;;7.30;99.90;;;;;;5029999;28;20049;-76
2023/05/17 02:53:29;;;;;;;30.10;20.88;;;7.40;99.90;;;;;;5022723;28;20429;-76
2023/05/17 02:55:59;;;;;;;24.90;19.17;;;7.30;99.90;;;;;;5016152;28;20049;-76
2023/05/17 02:58:26;;;;;;;27.00;20.85;;;7.30;99.90;;;;;;5023063;28;20046;-76
2023/05/17 03:00:52;;;;;;;27.15;20.52;;;7.20;99.90;;;;;;5023117;28;20175;-75
2023/05/17 03:03:19;;;;;;;26.05;20.13;;;7.30;99.90;;;;;;5011541;28;20123;-76
2023/05/17 03:05:46;;;;;;;25.83;21.50;;;7.30;99.90;;;;;;5024804;28;20048;-75
2023/05/17 03:08:13;;;;;;;28.15;21.10;;;7.30;99.90;;;;;;5021489;28;20052;-76
2023/05/17 03:10:40;;;;;;;29.55;21.98;;;7.40;99.90;;;;;;5018010;28;20124;-75
2023/05/17 03:13:08;;;;;;;28.42;21.13;;;7.40;99.90;;;;;;5025018;28;20072;-76
2023/05/17 03:15:38;;;;;;;25.75;21.42;;;7.30;99.90;;;;;;5022881;28;20037;-76
2023/05/17 03:18:05;;;;;;;35.58;23.70;;;7.40;99.90;;;;;;5020961;28;20407;-76
2023/05/17 03:20:32;;;;;;;25.60;21.55;;;7.30;99.90;;;;;;5025915;28;20045;-75
2023/05/17 03:22:59;;;;;;;37.38;21.95;;;7.40;99.90;;;;;;5036316;28;20102;-76
2023/05/17 03:25:26;;;;;;;24.45;21.48;;;7.30;99.90;;;;;;5025784;28;20773;-76
2023/05/17 03:27:53;;;;;;;30.35;21.48;;;7.30;99.90;;;;;;5028388;28;20091;-75
2023/05/17 03:30:20;;;;;;;31.58;22.10;;;7.30;99.90;;;;;;5035041;28;20055;-76
2023/05/17 03:32:47;;;;;;;33.88;22.63;;;7.30;99.90;;;;;;5031289;28;20429;-75
2023/05/17 03:35:14;;;;;;;30.77;22.02;;;7.20;99.90;;;;;;5005093;28;20038;-76
2023/05/17 03:37:50;;;;;;;43.72;21.80;;;7.20;99.90;;;;;;5011085;28;20037;-76
2023/05/17 03:40:17;;;;;;;36.85;21.13;;;7.20;99.90;;;;;;5012917;28;20690;-76
2023/05/17 03:42:45;;;;;;;30.63;22.63;;;7.20;99.90;;;;;;5029499;28;20045;-74
2023/05/17 03:45:11;;;;;;;42.65;24.15;;;7.00;99.90;;;;;;5029662;28;20037;-75
2023/05/17 03:47:38;;;;;;;34.60;22.27;;;7.00;99.90;;;;;;5023301;23;20059;-74
2023/05/17 03:50:06;;;;;;;35.42;22.30;;;7.00;99.90;;;;;;5018082;28;20471;-75
2023/05/17 03:52:33;;;;;;;40.78;22.70;;;7.00;99.90;;;;;;4994804;28;20053;-74
2023/05/17 03:55:00;;;;;;;40.13;23.95;;;7.20;99.90;;;;;;5012940;28;20267;-75
2023/05/17 03:57:28;;;;;;;35.50;20.23;;;7.00;99.90;;;;;;5015990;28;20041;-74
2023/05/17 03:59:55;;;;;;;34.60;21.83;;;7.00;99.90;;;;;;5013986;28;20029;-74
2023/05/17 04:02:22;;;;;;;46.90;20.15;;;7.10;99.90;;;;;;5016008;28;20490;-75
2023/05/17 04:04:49;;;;;;;38.20;22.23;;;7.10;99.90;;;;;;5014927;28;20044;-74
2023/05/17 04:07:17;;;;;;;31.13;19.73;;;7.10;99.90;;;;;;5031737;28;20090;-75
2023/05/17 04:09:45;;;;;;;32.15;22.33;;;6.90;99.90;;;;;;5028577;28;20174;-73
2023/05/17 04:12:12;;;;;;;36.08;21.05;;;7.00;99.90;;;;;;5025368;28;20565;-74
2023/05/17 04:14:39;;;;;;;42.67;22.17;;;7.00;99.90;;;;;;5011434;28;20480;-75
2023/05/17 04:17:06;;;;;;;34.10;20.65;;;7.00;99.90;;;;;;5013887;28;20049;-75
2023/05/17 04:19:33;;;;;;;32.22;20.13;;;7.00;99.90;;;;;;5029718;28;20076;-75
2023/05/17 04:22:00;;;;;;;32.10;21.15;;;7.10;99.90;;;;;;5009972;28;20049;-73
2023/05/17 04:24:28;;;;;;;30.10;21.98;;;7.00;99.90;;;;;;5014533;28;20053;-74
2023/05/17 04:26:58;;;;;;;32.38;20.63;;;7.00;99.90;;;;;;5012233;28;20036;-74
2023/05/17 04:29:27;;;;;;;32.75;19.77;;;7.00;99.90;;;;;;5012498;28;20565;-73
2023/05/17 04:31:54;;;;;;;29.00;20.50;;;6.90;99.90;;;;;;5016714;28;20107;-74
2023/05/17 04:34:22;;;;;;;32.80;21.40;;;7.00;99.90;;;;;;5023734;28;20044;-72
2023/05/17 04:36:49;;;;;;;30.45;21.42;;;7.00;99.90;;;;;;5021059;28;20041;-73
2023/05/17 04:39:16;;;;;;;35.97;21.17;;;7.10;99.90;;;;;;5012663;28;20043;-74
2023/05/17 04:41:43;;;;;;;32.60;21.70;;;7.20;99.90;;;;;;5025271;28;20525;-75
2023/05/17 04:44:12;;;;;;;31.77;19.60;;;7.10;99.90;;;;;;5014410;28;20410;-73
2023/05/17 04:46:40;;;;;;;28.50;19.42;;;7.10;99.90;;;;;;4996782;28;20047;-74
2023/05/17 04:49:07;;;;;;;28.08;19.92;;;7.00;99.90;;;;;;5014488;28;21454;-74
2023/05/17 04:51:34;;;;;;;32.13;21.25;;;7.00;99.90;;;;;;5030943;28;20036;-74
2023/05/17 04:54:05;;;;;;;30.08;21.17;;;6.90;99.90;;;;;;5012204;28;20118;-73
2023/05/17 04:56:35;;;;;;;37.78;19.80;;;6.90;99.90;;;;;;5023880;28;20102;-73
2023/05/17 04:59:04;;;;;;;33.65;21.85;;;6.90;99.90;;;;;;5010202;28;20337;-73
2023/05/17 05:01:31;;;;;;;27.58;19.98;;;6.90;99.90;;;;;;5013549;28;20498;-75
2023/05/17 05:03:58;;;;;;;34.72;19.52;;;6.90;99.90;;;;;;5013491;28;20623;-72
2023/05/17 05:06:28;;;;;;;29.88;19.20;;;6.90;99.90;;;;;;5014300;28;20076;-74
2023/05/17 05:08:55;;;;;;;27.17;19.33;;;6.90;99.90;;;;;;5009982;28;20099;-74
2023/05/17 05:11:22;;;;;;;25.98;19.20;;;7.00;99.90;;;;;;5027087;28;20052;-74
2023/05/17 05:13:49;;;;;;;30.33;19.20;;;7.10;99.90;;;;;;5023575;28;20037;-74
2023/05/17 05:16:16;;;;;;;34.47;20.75;;;7.10;99.90;;;;;;5015778;28;20137;-75
2023/05/17 05:18:43;;;;;;;34.50;20.40;;;7.00;99.90;;;;;;5016155;28;20041;-75
2023/05/17 05:21:11;;;;;;;33.70;22.58;;;7.10;99.90;;;;;;5030749;28;20080;-75
2023/05/17 05:23:38;;;;;;;27.20;20.83;;;7.30;99.90;;;;;;5016685;28;20491;-73
2023/05/17 05:26:05;;;;;;;45.20;22.15;;;7.40;99.90;;;;;;5017855;28;20052;-73
2023/05/17 05:28:32;;;;;;;34.78;20.48;;;7.40;99.90;;;;;;5018412;28;20427;-74
2023/05/17 05:30:59;;;;;;;33.05;22.75;;;7.40;99.90;;;;;;5024518;28;20099;-74
2023/05/17 05:33:33;;;;;;;32.72;21.67;;;7.50;99.90;;;;;;5017330;28;20498;-72
2023/05/17 05:36:00;;;;;;;31.42;20.05;;;7.30;99.90;;;;;;5013123;28;20178;-73
2023/05/17 05:38:27;;;;;;;37.72;20.98;;;7.10;99.90;;;;;;5031153;28;20040;-73
2023/05/17 05:40:54;;;;;;;35.75;22.20;;;7.20;99.90;;;;;;5011732;28;20114;-73
2023/05/17 05:43:20;;;;;;;38.65;21.38;;;7.30;99.90;;;;;;5030089;28;20510;-74
2023/05/17 05:45:48;;;;;;;34.38;20.95;;;7.30;99.90;;;;;;5016567;28;20049;-74
2023/05/17 05:48:15;;;;;;;28.98;20.33;;;7.40;99.90;;;;;;5017170;28;20049;-74
2023/05/17 05:50:43;;;;;;;27.20;22.33;;;7.40;99.90;;;;;;5014467;28;20072;-73
2023/05/17 05:53:10;;;;;;;37.97;21.25;;;7.60;99.90;;;;;;5016447;28;20048;-73
2023/05/17 05:55:48;;;;;;;25.38;22.70;;;7.60;99.90;;;;;;5008668;28;20564;-73
2023/05/17 05:58:15;;;;;;;27.33;22.05;;;7.60;99.90;;;;;;5015121;28;20098;-74
2023/05/17 06:00:43;;;;;;;31.02;22.05;;;7.80;99.90;;;;;;5013725;28;20510;-75
2023/05/17 06:03:10;;;;;;;31.60;23.35;;;7.90;99.90;;;;;;5034050;28;20345;-74
2023/05/17 06:05:37;;;;;;;33.58;23.85;;;7.90;99.90;;;;;;5024821;28;20448;-74
2023/05/17 06:08:05;;;;;;;47.90;25.92;;;7.80;99.90;;;;;;5034014;28;20045;-74
2023/05/17 06:10:32;;;;;;;30.55;23.35;;;7.90;99.90;;;;;;5031726;28;20049;-74
2023/05/17 06:12:59;;;;;;;34.38;23.80;;;7.90;99.90;;;;;;5031417;28;20286;-75
2023/05/17 06:15:27;;;;;;;30.17;23.33;;;7.90;99.90;;;;;;5029794;28;20395;-74
2023/05/17 06:17:53;;;;;;;32.30;23.45;;;8.00;99.90;;;;;;5031195;28;20053;-74
2023/05/17 06:20:20;;;;;;;28.55;23.00;;;8.10;99.90;;;;;;5035521;28;20605;-75
2023/05/17 06:22:47;;;;;;;36.33;23.65;;;8.20;99.90;;;;;;5010507;28;20041;-73
2023/05/17 06:25:13;;;;;;;25.35;22.63;;;8.10;99.90;;;;;;5028566;28;20098;-73
2023/05/17 06:27:40;;;;;;;38.95;25.80;;;8.30;99.90;;;;;;5028709;28;20340;-73
2023/05/17 06:30:07;;;;;;;30.73;23.92;;;8.30;99.90;;;;;;5015138;28;20069;-74
2023/05/17 06:32:34;;;;;;;40.28;24.40;;;8.20;99.90;;;;;;5014870;28;20110;-73
2023/05/17 06:35:01;;;;;;;33.15;24.45;;;8.20;99.90;;;;;;5022442;28;20076;-75
2023/05/17 06:37:28;;;;;;;32.00;24.42;;;8.30;99.90;;;;;;5032988;28;20265;-74
2023/05/17 06:40:05;;;;;;;40.67;25.35;;;8.30;99.90;;;;;;5031203;28;20285;-72
2023/05/17 06:42:41;;;;;;;;;;;8.50;99.90;;;;;;5041317;28;20506;-74
2023/05/17 06:45:09;;;;;;;30.77;25.60;;;8.40;99.90;;;;;;5007208;28;19987;-73
2023/05/17 06:47:36;;;;;;;28.38;25.48;;;8.50;99.90;;;;;;5016153;28;20049;-74
2023/05/17 06:50:03;;;;;;;32.25;26.65;;;8.70;99.90;;;;;;5014122;28;20329;-74
2023/05/17 06:52:29;;;;;;;35.17;26.55;;;8.80;99.90;;;;;;5028471;28;20450;-75
2023/05/17 06:54:56;;;;;;;32.78;25.02;;;8.80;99.90;;;;;;5013084;28;20033;-75
2023/05/17 06:57:23;;;;;;;35.78;27.13;;;8.90;99.90;;;;;;5016952;28;20041;-75
2023/05/17 06:59:51;;;;;;;37.63;26.92;;;9.00;99.90;;;;;;5012198;28;20121;-74
2023/05/17 07:02:18;;;;;;;31.77;26.50;;;9.00;99.90;;;;;;5031195;28;20045;-73
2023/05/17 07:04:45;;;;;;;28.98;26.27;;;9.10;99.90;;;;;;5026706;28;20056;-73
2023/05/17 07:07:12;;;;;;;36.00;27.02;;;9.20;99.90;;;;;;5015546;28;20659;-75
2023/05/17 07:09:39;;;;;;;34.90;27.10;;;9.10;99.90;;;;;;5014128;28;20052;-74
2023/05/17 07:12:06;;;;;;;33.88;26.75;;;9.00;99.90;;;;;;5006173;28;20128;-75
2023/05/17 07:14:34;;;;;;;29.77;27.05;;;9.00;99.90;;;;;;5029777;28;20059;-75
2023/05/17 07:17:01;;;;;;;31.65;28.10;;;9.00;99.90;;;;;;5032135;28;20568;-74
2023/05/17 07:19:28;;;;;;;33.50;26.20;;;9.00;99.90;;;;;;5029609;28;20160;-73
2023/05/17 07:21:56;;;;;;;36.75;27.05;;;8.80;99.90;;;;;;5015168;28;20033;-74
2023/05/17 07:24:22;;;;;;;40.80;26.65;;;8.80;99.90;;;;;;5030579;28;20052;-73
2023/05/17 07:26:49;;;;;;;32.92;25.35;;;8.80;99.90;;;;;;5025377;28;20048;-74
2023/05/17 07:29:18;;;;;;;28.50;25.52;;;9.00;99.90;;;;;;5013584;28;20041;-73
2023/05/17 07:31:45;;;;;;;30.08;24.35;;;9.00;99.90;;;;;;5010478;28;20285;-73
2023/05/17 07:34:12;;;;;;;28.70;25.55;;;9.00;99.90;;;;;;5025443;28;20051;-75
2023/05/17 07:36:39;;;;;;;28.92;26.23;;;9.20;99.90;;;;;;5013612;28;20069;-74
2023/05/17 07:39:07;;;;;;;29.90;26.02;;;9.10;99.90;;;;;;5014406;28;20526;-75
2023/05/17 07:41:34;;;;;;;28.88;26.05;;;9.10;99.90;;;;;;5014491;28;20133;-75
2023/05/17 07:44:01;;;;;;;29.80;25.20;;;9.30;99.90;;;;;;5014801;28;20568;-74
2023/05/17 07:46:28;;;;;;;27.88;24.67;;;9.20;99.90;;;;;;5033608;28;20467;-75
2023/05/17 07:48:54;;;;;;;27.85;24.95;;;9.30;99.90;;;;;;5029312;28;20040;-75
2023/05/17 07:51:24;;;;;;;28.25;25.75;;;9.50;99.90;;;;;;5014974;28;20048;-74
2023/05/17 07:53:51;;;;;;;31.45;25.95;;;9.50;99.90;;;;;;5016489;28;20048;-74
2023/05/17 07:56:18;;;;;;;28.65;25.92;;;9.40;99.90;;;;;;5013493;28;20068;-76
2023/05/17 07:58:45;;;;;;;28.73;25.80;;;9.30;99.90;;;;;;5032344;28;20465;-78
2023/05/17 08:01:11;;;;;;;27.75;25.13;;;9.10;99.90;;;;;;5020418;28;20051;-79
2023/05/17 08:03:46;;;;;;;30.60;27.40;;;9.10;99.90;;;;;;5015958;28;20128;-78
2023/05/17 08:06:17;;;;;;;27.63;24.85;;;9.40;99.90;;;;;;5015877;28;20044;-76
2023/05/17 08:08:44;;;;;;;28.48;25.58;;;9.70;99.90;;;;;;5027591;28;20067;-76
2023/05/17 08:11:11;;;;;;;29.02;26.23;;;9.60;99.90;;;;;;5030623;28;20083;-76
2023/05/17 08:13:38;;;;;;;28.63;25.85;;;9.80;99.90;;;;;;5015806;28;20041;-77
2023/05/17 08:16:08;;;;;;;28.00;25.33;;;9.70;99.90;;;;;;5026821;28;20037;-77
2023/05/17 08:18:40;;;;;;;;;;;9.60;99.90;;;;;;5031869;28;20128;-77
2023/05/17 08:21:08;;;;;;;29.25;26.77;;;9.70;99.90;;;;;;5038905;28;19925;-77
2023/05/17 08:23:35;;;;;;;28.02;25.63;;;10.10;99.90;;;;;;5028985;28;20053;-78
2023/05/17 08:26:02;;;;;;;28.38;25.75;;;10.20;99.90;;;;;;5030749;28;20064;-78
2023/05/17 08:28:28;;;;;;;27.98;25.35;;;10.40;99.90;;;;;;5000208;28;20045;-77
2023/05/17 08:30:56;;;;;;;28.38;25.60;;;10.50;99.90;;;;;;5015676;28;20120;-78
2023/05/17 08:33:24;;;;;;;27.67;24.98;;;10.60;99.90;;;;;;5027880;28;20263;-78
2023/05/17 08:35:54;;;;;;;28.13;25.60;;;10.60;99.90;;;;;;5029003;28;20444;-81
2023/05/17 08:38:21;;;;;;;28.23;25.45;;;10.10;99.90;;;;;;5029078;28;20550;-78
2023/05/17 08:40:54;;;;;;;28.08;25.75;;;10.00;99.90;;;;;;5014895;28;20615;-78
2023/05/17 08:43:23;;;;;;;27.05;24.88;;;10.30;99.90;;;;;;5029974;28;20049;-78
2023/05/17 08:45:56;;;;;;;29.02;26.70;;;10.70;99.90;;;;;;5014448;28;20535;-77
2023/05/17 08:48:23;;;;;;;29.73;27.02;;;11.20;99.90;;;;;;5009347;28;20241;-78
2023/05/17 08:50:53;;;;;;;29.92;27.33;;;11.60;99.90;;;;;;5029581;28;20045;-79
2023/05/17 08:53:19;;;;;;;30.17;27.13;;;12.10;99.90;;;;;;5013323;28;20569;-78
2023/05/17 08:55:49;;;;;;;30.88;28.17;;;12.10;99.90;;;;;;5013417;28;20132;-78
2023/05/17 08:58:24;;;;;;;27.23;24.98;;;12.00;99.90;;;;;;5024305;28;20051;-78
2023/05/17 09:00:55;;;;;;;28.88;26.30;;;12.40;99.90;;;;;;5030406;28;20033;-79
2023/05/17 09:03:23;;;;;;;29.77;27.25;;;12.20;99.90;;;;;;5028217;28;20114;-76
2023/05/17 09:05:53;;;;;;;29.13;26.70;;;12.10;99.90;;;;;;5029051;28;20059;-78
2023/05/17 09:08:23;;;;;;;32.78;29.90;;;11.60;99.90;;;;;;5030135;28;20106;-77
2023/05/17 09:10:50;;;;;;;29.65;27.27;;;11.60;99.90;;;;;;5029068;28;20630;-79
2023/05/17 09:13:16;;;;;;;29.10;26.80;;;12.00;99.90;;;;;;5025782;28;20046;-79
2023/05/17 09:15:47;;;;;;;29.75;27.05;;;12.60;99.90;;;;;;5026380;28;20050;-78
2023/05/17 09:18:13;;;;;;;28.88;26.30;;;12.40;99.90;;;;;;5013371;28;20061;-79
2023/05/17 09:20:50;;;;;;;29.58;27.15;;;12.10;99.90;;;;;;5013576;28;20047;-78
2023/05/17 09:23:19;;;;;;;30.98;27.70;;;11.90;99.90;;;;;;5030604;28;20053;-77
2023/05/17 09:25:49;;;;;;;27.98;25.48;;;11.90;99.90;;;;;;5013040;28;20048;-78
2023/05/17 09:28:19;;;;;;;28.73;26.13;;;11.90;99.90;;;;;;5026554;28;20433;-80
2023/05/17 09:30:48;;;;;;;31.20;28.70;;;11.90;99.90;;;;;;5026154;28;20041;-80
2023/05/17 09:33:14;;;;;;;32.55;30.10;;;11.90;99.90;;;;;;5022128;28;20619;-78
2023/05/17 09:35:44;;;;;;;32.95;30.42;;;11.80;99.90;;;;;;5011374;28;20260;-79
2023/05/17 09:38:12;;;;;;;31.85;28.88;;;11.80;99.90;;;;;;5031447;28;20033;-77
2023/05/17 09:40:41;;;;;;;30.08;28.05;;;12.00;99.90;;;;;;5023190;28;20064;-78
2023/05/17 09:43:10;;;;;;;31.77;29.38;;;12.10;99.90;;;;;;5026663;28;20490;-80
2023/05/17 09:45:37;;;;;;;38.47;35.10;;;11.80;99.90;;;;;;5014448;28;20075;-76
2023/05/17 09:48:14;;;;;;;35.08;28.75;;;12.00;99.90;;;;;;5025426;28;20103;-75
2023/05/17 09:50:49;;;;;;;31.35;28.20;;;12.20;99.90;;;;;;5012409;28;20073;-76
2023/05/17 09:53:31;;;;;;;29.92;27.20;;;12.10;99.90;;;;;;5013361;28;20513;-75
2023/05/17 09:56:04;;;;;;;30.33;27.75;;;11.70;99.90;;;;;;5028031;28;20063;-75
2023/05/17 09:58:32;;;;;;;31.80;28.98;;;11.20;99.90;;;;;;5011437;28;20284;-76
2023/05/17 10:01:02;;;;;;;33.05;29.60;;;11.20;99.90;;;;;;5032141;28;20315;-76
2023/05/17 10:03:39;;;;;;;32.05;29.13;;;11.60;99.90;;;;;;5019117;28;20044;-76
2023/05/17 10:06:08;;;;;;;32.33;29.27;;;12.30;99.90;;;;;;5033450;28;20049;-76
2023/05/17 10:08:45;;;;;;;32.08;29.40;;;12.40;99.90;;;;;;5033721;28;20521;-77
2023/05/17 10:11:12;;;;;;;35.42;32.88;;;12.10;99.90;;;;;;5015382;28;20470;-77
2023/05/17 10:14:10;;;;;;;30.08;27.48;;;12.60;99.90;;;;;;5030361;28;20513;-76
2023/05/17 10:16:38;;;;;;;30.73;28.05;;;13.00;99.90;;;;;;5007057;28;20102;-76
2023/05/17 10:19:05;;;;;;;38.10;34.75;;;12.40;99.90;;;;;;5015584;28;20045;-75
2023/05/17 10:21:33;;;;;;;35.03;31.88;;;12.20;99.90;;;;;;5031318;28;20043;-77
2023/05/17 10:24:01;;;;;;;31.02;28.23;;;13.00;99.90;;;;;;5033879;28;20049;-77
2023/05/17 10:26:29;;;;;;;30.10;27.17;;;13.20;99.90;;;;;;5031384;28;20048;-76
2023/05/17 10:29:00;;;;;;;31.20;28.48;;;13.10;99.90;;;;;;5013466;28;20959;-74
2023/05/17 10:31:32;;;;;;;31.33;28.98;;;12.60;99.90;;;;;;5015423;28;20199;-76
2023/05/17 10:34:06;;;;;;;37.33;33.88;;;12.40;99.90;;;;;;5016425;28;20069;-77
2023/05/17 10:36:33;;;;;;;38.38;35.20;;;12.40;99.90;;;;;;5018320;28;20263;-77
2023/05/17 10:39:01;;;;;;;32.85;30.20;;;13.00;99.90;;;;;;5016929;28;20037;-76
2023/05/17 10:41:32;;;;;;;36.17;32.50;;;12.80;99.90;;;;;;5025877;28;20033;-76
2023/05/17 10:44:02;;;;;;;34.92;31.35;;;12.40;99.90;;;;;;5015402;28;20068;-76
2023/05/17 10:46:29;;;;;;;39.65;36.30;;;11.90;99.90;;;;;;5029087;28;20040;-77
2023/05/17 10:48:59;;;;;;;40.75;37.67;;;12.40;99.90;;;;;;5028382;28;20059;-76
2023/05/17 10:51:30;;;;;;;33.28;30.60;;;13.20;99.90;;;;;;5028383;28;20071;-76
2023/05/17 10:54:11;;;;;;;35.28;31.80;;;13.40;99.90;;;;;;5032401;28;20837;-76
2023/05/17 10:56:46;;;;;;;33.50;30.90;;;13.00;99.90;;;;;;5034267;28;20454;-75
2023/05/17 10:59:21;;;;;;;38.92;36.10;;;12.90;99.90;;;;;;5016512;28;20056;-77
2023/05/17 11:02:05;;;;;;;37.35;34.50;;;12.80;99.90;;;;;;5014882;28;20226;-76
2023/05/17 11:04:40;;;;;;;33.95;31.20;;;13.00;99.90;;;;;;5033103;28;20325;-77
2023/05/17 11:07:16;;;;;;;38.55;35.63;;;13.20;99.90;;;;;;5015192;28;20041;-77
2023/05/17 11:09:48;;;;;;;32.45;29.95;;;13.40;99.90;;;;;;5027010;28;20067;-76
2023/05/17 11:12:15;;;;;;;38.65;29.58;;;13.90;99.90;;;;;;5013072;28;20041;-77
2023/05/17 11:14:45;;;;;;;33.42;30.42;;;13.30;99.90;;;;;;5029138;28;20033;-76
2023/05/17 11:17:27;;;;;;;35.35;32.22;;;12.90;99.90;;;;;;5014361;28;20144;-76
2023/05/17 11:19:53;;;;;;;33.13;30.17;;;12.70;99.90;;;;;;5012117;28;20038;-76
2023/05/17 11:22:24;;;;;;;33.30;30.52;;;12.80;99.90;;;;;;5029704;28;20049;-76
2023/05/17 11:24:52;;;;;;;40.65;37.17;;;12.40;99.90;;;;;;5027348;28;20038;-76
2023/05/17 11:27:26;;;;;;;38.85;35.53;;;12.30;99.90;;;;;;5024323;28;20407;-76
2023/05/17 11:29:55;;;;;;;;;;;12.80;99.90;;;;;;5017999;28;20048;-76
2023/05/17 11:32:30;;;;;;;37.42;34.70;;;13.10;99.90;;;;;;5030346;28;20362;-77
2023/05/17 11:34:59;;;;;;;37.40;34.45;;;12.90;99.90;;;;;;5003182;28;20060;-77
2023/05/17 11:37:27;;;;;;;37.25;34.05;;;13.00;99.90;;;;;;5013249;28;20045;-76
2023/05/17 11:40:06;;;;;;;39.80;36.40;;;13.30;99.90;;;;;;5028100;28;20033;-76
2023/05/17 11:42:38;;;;;;;34.60;31.40;;;13.50;99.90;;;;;;5015707;28;20041;-76
2023/05/17 11:45:06;;;;;;;35.40;32.90;;;13.80;99.90;;;;;;5029763;28;20160;-77
2023/05/17 11:47:37;;;;;;;32.75;30.00;;;14.00;99.90;;;;;;5027105;28;20037;-77
2023/05/17 11:50:05;;;;;;;33.33;30.30;;;13.80;99.90;;;;;;5011350;28;20124;-77
2023/05/17 11:52:33;;;;;;;37.15;33.50;;;13.50;99.90;;;;;;5015290;28;20057;-78
2023/05/17 11:55:00;;;;;;;36.10;32.97;;;13.20;99.90;;;;;;5019467;28;21490;-78
2023/05/17 11:57:31;;;;;;;35.08;32.38;;;13.10;99.90;;;;;;5021681;28;20044;-79
2023/05/17 12:00:03;;;;;;;39.72;36.25;;;13.20;99.90;;;;;;5024054;28;20048;-79
2023/05/17 12:02:38;;;;;;;37.80;35.00;;;13.20;99.90;;;;;;5028488;28;20075;-79
2023/05/17 12:05:07;;;;;;;35.30;32.45;;;13.40;99.90;;;;;;5016606;28;20048;-78
2023/05/17 12:07:36;;;;;;;36.65;33.67;;;13.30;99.90;;;;;;5018342;28;20206;-76
2023/05/17 12:10:04;;;;;;;36.13;33.08;;;13.20;99.90;;;;;;4998862;28;20148;-78
2023/05/17 12:12:31;;;;;;;35.92;33.08;;;13.30;99.90;;;;;;5027750;28;21838;-77
2023/05/17 12:14:58;;;;;;;37.60;34.42;;;13.10;99.90;;;;;;5020481;28;20090;-76
2023/05/17 12:17:34;;;;;;;34.55;31.38;;;13.60;99.90;;;;;;5028859;28;20180;-76
2023/05/17 12:20:09;;;;;;;37.85;34.40;;;14.20;99.90;;;;;;5015032;28;20054;-76
2023/05/17 12:22:56;;;;;;;39.65;36.47;;;14.20;99.90;;;;;;5029801;28;20089;-75
2023/05/17 12:25:28;;;;;;;38.70;35.50;;;14.20;99.90;;;;;;5002852;28;20053;-77
2023/05/17 12:28:21;;;;;;;33.75;31.17;;;14.20;99.90;;;;;;5029749;28;20049;-76
2023/05/17 12:30:52;;;;;;;37.13;33.97;;;14.60;99.90;;;;;;5025284;28;20041;-75
2023/05/17 12:33:19;;;;;;;36.33;33.42;;;14.10;99.90;;;;;;5010648;28;20041;-74
2023/05/17 12:35:46;;;;;;;39.90;36.83;;;13.20;99.90;;;;;;5027611;28;20045;-75
2023/05/17 12:38:13;;;;;;;39.90;36.72;;;13.30;99.90;;;;;;5026131;28;20407;-74
2023/05/17 12:40:40;;;;;;;35.65;32.28;;;13.50;99.90;;;;;;5027074;28;20115;-74
2023/05/17 12:43:09;;;;;;;36.65;33.58;;;13.70;99.90;;;;;;5011025;28;20546;-75